Time;durP1;ratioP1;P1;durP2;ratioP2;P2;SDS_P1;SDS_P2;PMS_P1;PMS_P2;Temp;Humidity;BMP_temperature;BMP_pressure;BME280_temperature;BME280_humidity;BME280_pressure;Samples;Min_cycle;Max_cycle;Signal;HPM_P1;HPM_P2
2022/05/30 00:02:20;;;;;;;4.97;1.88;;;;;;;11.58;63.69;100794.66;4992641;28;20062;-63
2022/05/30 00:04:48;;;;;;;6.20;1.73;;;;;;;11.58;63.58;100794.66;4994023;28;20054;-63
2022/05/30 00:07:15;;;;;;;6.45;1.77;;;;;;;11.64;63.32;100804.47;4994172;28;20054;-64
2022/05/30 00:09:42;;;;;;;7.13;1.73;;;;;;;11.46;64.13;100788.94;4994214;28;20061;-62
2022/05/30 00:12:10;;;;;;;5.72;1.80;;;;;;;11.63;63.97;100785.47;4995267;28;20062;-64
2022/05/30 00:14:37;;;;;;;4.60;1.88;;;;;;;11.64;63.59;100776.03;5008213;28;20054;-64
2022/05/30 00:17:05;;;;;;;3.90;1.65;;;;;;;11.69;63.54;100773.16;4995622;28;20046;-64
2022/05/30 00:19:35;;;;;;;6.60;2.25;;;;;;;11.68;63.54;100769.56;4984491;28;20127;-64
2022/05/30 00:22:03;;;;;;;7.03;2.25;;;;;;;11.68;63.54;100772.34;4975377;28;20072;-63
2022/05/30 00:24:34;;;;;;;3.55;1.52;;;;;;;11.78;63.20;100763.78;4992250;28;20628;-63
2022/05/30 00:27:02;;;;;;;4.47;1.70;;;;;;;11.87;62.81;100763.81;4994059;28;20058;-62
2022/05/30 00:29:30;;;;;;;6.13;1.67;;;;;;;11.84;63.18;100769.94;4978030;28;20683;-63
2022/05/30 00:31:57;;;;;;;6.65;1.98;;;;;;;11.80;63.32;100768.97;4977833;28;20058;-63
2022/05/30 00:34:25;;;;;;;6.85;2.80;;;;;;;11.73;64.11;100749.31;4995356;28;20046;-63
2022/05/30 00:36:52;;;;;;;7.32;2.33;;;;;;;11.76;64.08;100759.72;4992638;28;20050;-63
2022/05/30 00:39:20;;;;;;;5.57;2.22;;;;;;;11.85;63.78;100757.78;4993978;28;20050;-62
2022/05/30 00:41:47;;;;;;;6.10;2.13;;;;;;;11.70;64.50;100749.97;4994915;28;20054;-63
2022/05/30 00:44:15;;;;;;;7.30;2.03;;;;;;;11.81;64.20;100746.59;4996288;28;20046;-64
2022/05/30 00:46:42;;;;;;;5.57;2.35;;;;;;;11.69;64.82;100745.56;4998239;28;20054;-64
2022/05/30 00:49:12;;;;;;;7.63;2.35;;;;;;;11.77;64.66;100753.88;5013649;28;20047;-64
2022/05/30 00:51:46;;;;;;;6.72;2.40;;;;;;;11.65;65.18;100742.63;4980728;28;20042;-64
2022/05/30 00:54:29;;;;;;;10.32;3.50;;;;;;;11.61;65.46;100747.13;5013751;28;20422;-64
2022/05/30 00:56:59;;;;;;;5.88;2.53;;;;;;;11.65;65.36;100739.06;4997547;28;20057;-63
2022/05/30 00:59:27;;;;;;;9.95;2.58;;;;;;;11.50;65.88;100736.72;5011541;28;20058;-63
2022/05/30 01:01:54;;;;;;;8.00;2.88;;;;;;;11.44;66.45;100735.25;4997264;28;20059;-63
2022/05/30 01:07:09;;;;;;;9.32;2.92;;;;;;;11.68;65.65;100732.91;4983615;28;20059;-64
2022/05/30 01:09:45;;;;;;;7.18;2.78;;;;;;;11.71;65.75;100732.28;4997387;28;20065;-64
2022/05/30 01:12:13;;;;;;;9.20;3.05;;;;;;;11.79;65.43;100725.94;4996556;28;20053;-62
2022/05/30 01:14:43;;;;;;;8.07;3.03;;;;;;;11.81;65.35;100731.97;4996257;28;20058;-62
2022/05/30 01:17:13;;;;;;;11.32;2.72;;;;;;;11.72;65.61;100720.09;4980959;28;20061;-64
2022/05/30 01:19:57;;;;;;;8.52;3.15;;;;;;;11.53;66.43;100722.28;4998407;28;20055;-63
2022/05/30 01:22:59;;;;;;;10.25;3.00;;;;;;;12.04;64.85;100714.16;5001341;28;20054;-64
2022/05/30 01:25:43;;;;;;;11.20;3.28;;;;;;;11.60;66.17;100722.63;4997096;28;20057;-64
2022/05/30 01:28:39;;;;;;;7.13;2.92;;;;;;;11.76;66.05;100712.81;4978108;28;20058;-63
2022/05/30 01:31:07;;;;;;;6.63;2.75;;;;;;;11.45;66.61;100714.78;4951919;28;20065;-63
2022/05/30 01:33:36;;;;;;;7.28;2.90;;;;;;;11.44;67.21;100721.44;4976572;28;20058;-63
2022/05/30 01:36:05;;;;;;;7.50;3.17;;;;;;;11.70;66.45;100714.09;4959349;28;20059;-63
2022/05/30 01:38:33;;;;;;;8.73;3.20;;;;;;;11.87;65.59;100725.16;4973677;28;20059;-63
2022/05/30 01:41:02;;;;;;;6.95;3.22;;;;;;;11.33;67.53;100718.16;4957965;29;20048;-63
2022/05/30 01:43:31;;;;;;;8.52;3.08;;;;;;;11.57;67.03;100715.81;4973930;28;20067;-62
2022/05/30 01:46:11;;;;;;;11.00;3.50;;;;;;;11.60;66.65;100723.44;4976133;28;20051;-63
2022/05/30 01:48:48;;;;;;;7.55;2.92;;;;;;;11.65;66.49;100712.28;4971365;28;20058;-64
2022/05/30 01:51:18;;;;;;;11.02;3.53;;;;;;;11.36;67.52;100725.78;4973468;28;20055;-63
2022/05/30 01:53:49;;;;;;;9.43;3.15;;;;;;;11.39;67.38;100711.34;4957992;28;20062;-63
2022/05/30 01:56:32;;;;;;;10.20;3.42;;;;;;;11.20;67.69;100721.81;4960048;28;20069;-63
2022/05/30 01:59:00;;;;;;;8.80;2.77;;;;;;;11.32;67.64;100733.88;4976826;28;20059;-63
2022/05/30 02:01:38;;;;;;;10.65;2.70;;;;;;;11.15;67.86;100730.22;4976874;28;20302;-63
2022/05/30 02:04:06;;;;;;;6.95;3.05;;;;;;;11.41;67.21;100727.59;4976925;28;20070;-64
2022/05/30 02:06:35;;;;;;;8.27;2.53;;;;;;;11.38;67.13;100729.84;4975275;28;20046;-64
2022/05/30 02:09:04;;;;;;;9.35;3.53;;;;;;;11.54;66.44;100730.22;4992293;28;20058;-64
2022/05/30 02:11:33;;;;;;;7.10;2.77;;;;;;;11.21;67.34;100732.53;4960963;28;20043;-63
2022/05/30 02:14:20;;;;;;;7.38;2.78;;;;;;;11.07;68.20;100739.28;4992996;28;20314;-63
2022/05/30 02:17:00;;;;;;;10.55;2.90;;;;;;;10.84;68.92;100723.91;4977054;28;20065;-63
2022/05/30 02:19:32;;;;;;;6.15;2.33;;;;;;;11.14;67.74;100721.13;4964501;28;20055;-65
2022/05/30 02:22:04;;;;;;;8.13;2.65;;;;;;;11.22;67.40;100716.81;4972969;28;20051;-63
2022/05/30 02:24:32;;;;;;;7.32;2.70;;;;;;;11.23;67.08;100727.50;4941432;29;20054;-63
2022/05/30 02:26:59;;;;;;;7.68;2.63;;;;;;;11.17;67.55;100716.94;4937817;29;20410;-63
2022/05/30 02:29:26;;;;;;;5.82;2.40;;;;;;;11.50;66.71;100729.25;4938980;29;20062;-63
2022/05/30 02:31:58;;;;;;;6.10;2.65;;;;;;;11.25;67.10;100727.19;4972809;28;20058;-63
2022/05/30 02:37:12;;;;;;;11.88;3.53;;;;;;;11.13;68.54;100727.78;4978269;28;20054;-63
2022/05/30 02:39:41;;;;;;;11.45;3.40;;;;;;;11.09;68.62;100724.03;5011579;28;20074;-64
2022/05/30 02:42:27;;;;;;;6.72;2.78;;;;;;;11.20;68.67;100730.91;4994132;28;20042;-63
2022/05/30 02:44:55;;;;;;;6.63;3.05;;;;;;;11.35;68.15;100722.22;5011836;28;20050;-63
2022/05/30 02:47:22;;;;;;;10.00;3.15;;;;;;;11.24;68.47;100734.66;4996484;28;20058;-63
2022/05/30 02:49:58;;;;;;;10.98;3.78;;;;;;;11.21;68.35;100731.69;4994786;28;20050;-64
2022/05/30 02:52:26;;;;;;;10.90;4.53;;;;;;;11.10;69.21;100727.63;4993891;28;20402;-63
2022/05/30 02:54:54;;;;;;;10.25;3.80;;;;;;;11.21;68.97;100727.00;4995159;28;20054;-69
2022/05/30 02:57:40;;;;;;;8.77;3.75;;;;;;;11.38;68.46;100718.81;4978970;28;20102;-70
2022/05/30 03:00:08;;;;;;;13.35;4.50;;;;;;;11.29;68.51;100728.19;4995219;28;20069;-70
2022/05/30 03:02:40;;;;;;;9.63;3.78;;;;;;;11.24;69.16;100726.38;4993689;28;20051;-70
2022/05/30 03:05:07;;;;;;;9.98;3.75;;;;;;;11.36;68.41;100720.28;4978745;28;20502;-69
2022/05/30 03:07:35;;;;;;;10.45;3.88;;;;;;;10.97;69.67;100726.56;5010491;28;20621;-70
2022/05/30 03:10:11;;;;;;;8.15;3.92;;;;;;;11.17;69.47;100731.56;4994863;28;20502;-71
2022/05/30 03:12:48;;;;;;;9.93;4.38;;;;;;;11.02;69.90;100725.59;4996336;28;20057;-70
2022/05/30 03:15:16;;;;;;;7.65;4.07;;;;;;;11.24;69.07;100723.63;4977321;28;20061;-70
2022/05/30 03:17:44;;;;;;;9.95;4.18;;;;;;;10.98;69.87;100724.63;4994669;28;20058;-71
2022/05/30 03:20:12;;;;;;;13.18;4.70;;;;;;;11.04;69.79;100728.88;4987589;28;20047;-63
2022/05/30 03:22:39;;;;;;;10.95;4.53;;;;;;;11.37;68.96;100727.41;4988086;28;20054;-62
2022/05/30 03:25:27;;;;;;;9.93;4.82;;;;;;;10.78;70.97;100725.16;4955948;28;20067;-64
2022/05/30 03:27:58;;;;;;;11.35;4.78;;;;;;;10.70;71.00;100728.66;4987166;28;20421;-65
2022/05/30 03:30:26;;;;;;;13.32;4.90;;;;;;;10.87;70.79;100723.25;4978525;28;20054;-64
2022/05/30 03:32:54;;;;;;;9.18;4.60;;;;;;;11.06;70.16;100730.19;4995676;28;20043;-63
2022/05/30 03:35:21;;;;;;;10.90;4.25;;;;;;;10.84;70.19;100727.47;4994570;28;20425;-70
2022/05/30 03:38:03;;;;;;;9.15;4.13;;;;;;;10.95;70.09;100731.56;5010265;28;20061;-70
2022/05/30 03:40:49;;;;;;;13.23;4.18;;;;;;;10.71;70.13;100724.78;4994578;28;20050;-64
2022/05/30 03:43:46;;;;;;;11.38;4.70;;;;;;;10.88;69.68;100731.22;4983420;28;20050;-71
2022/05/30 03:46:14;;;;;;;11.65;3.75;;;;;;;10.84;69.22;100730.22;4995871;28;20767;-65
2022/05/30 03:48:42;;;;;;;10.27;3.75;;;;;;;10.50;70.57;100731.91;4993761;28;20561;-63
2022/05/30 03:51:14;;;;;;;12.55;3.50;;;;;;;10.43;70.78;100728.78;4992892;28;20054;-70
2022/05/30 03:53:43;;;;;;;9.95;3.90;;;;;;;10.56;70.45;100739.75;4994490;28;20050;-70
2022/05/30 03:56:11;;;;;;;9.23;3.85;;;;;;;10.49;70.41;100739.38;4978501;28;20046;-69
2022/05/30 03:58:39;;;;;;;14.05;4.50;;;;;;;10.39;70.88;100741.56;5010564;28;20058;-71
2022/05/30 04:01:08;;;;;;;12.95;4.20;;;;;;;10.49;70.68;100744.88;5010942;28;20505;-70
2022/05/30 04:03:37;;;;;;;12.57;4.88;;;;;;;10.39;71.21;100741.56;4993296;28;20049;-69
2022/05/30 04:06:05;;;;;;;17.50;4.78;;;;;;;10.63;70.41;100745.66;5006033;28;20054;-69
2022/05/30 04:08:34;;;;;;;12.43;4.60;;;;;;;10.72;69.98;100749.25;4994459;28;20577;-70
2022/05/30 04:11:20;;;;;;;10.75;4.80;;;;;;;10.87;69.48;100756.31;4995673;28;20042;-69
2022/05/30 04:14:03;;;;;;;8.85;4.65;;;;;;;10.94;69.05;100757.53;4995615;28;20051;-63
2022/05/30 04:16:42;;;;;;;13.60;5.05;;;;;;;10.51;69.82;100756.41;4976439;28;20054;-64
2022/05/30 04:19:12;;;;;;;10.20;4.80;;;;;;;10.62;69.99;100760.53;4983108;28;20055;-64
2022/05/30 04:21:39;;;;;;;16.13;5.15;;;;;;;10.78;69.49;100767.28;4959226;29;20066;-70
2022/05/30 04:24:07;;;;;;;11.43;4.60;;;;;;;10.79;69.38;100763.41;4991973;28;20051;-70
2022/05/30 04:26:44;;;;;;;12.38;4.50;;;;;;;10.88;68.65;100756.00;5011361;28;20433;-70
2022/05/30 04:29:13;;;;;;;12.73;4.72;;;;;;;10.73;69.38;100761.09;4998069;28;20221;-70
2022/05/30 04:31:59;;;;;;;10.55;4.22;;;;;;;10.90;69.30;100767.53;4998083;28;20054;-70
2022/05/30 04:34:27;;;;;;;7.85;3.72;;;;;;;11.02;68.39;100769.72;4980651;28;20529;-71
2022/05/30 04:36:56;;;;;;;12.98;4.55;;;;;;;11.04;68.09;100768.28;5013620;28;20058;-70
2022/05/30 04:39:24;;;;;;;10.27;4.03;;;;;;;11.06;68.21;100771.53;4980907;28;20054;-71
2022/05/30 04:41:57;;;;;;;18.65;4.88;;;;;;;10.65;69.41;100764.59;4997936;28;20062;-70
2022/05/30 04:44:43;;;;;;;8.35;3.92;;;;;;;10.75;69.81;100772.63;4998782;28;20533;-71
2022/05/30 04:47:33;;;;;;;15.85;4.70;;;;;;;10.66;69.52;100766.22;4997698;28;20046;-70
2022/05/30 04:50:00;;;;;;;11.45;4.90;;;;;;;10.77;69.04;100768.44;4981240;28;20520;-70
2022/05/30 04:52:30;;;;;;;20.23;5.25;;;;;;;10.84;68.75;100777.06;4997310;28;20050;-70
2022/05/30 04:55:04;;;;;;;13.02;4.88;;;;;;;10.22;70.62;100768.94;4996569;28;20065;-70
2022/05/30 04:57:46;;;;;;;12.40;5.30;;;;;;;10.54;70.21;100774.22;4981162;28;20073;-72
2022/05/30 05:00:32;;;;;;;12.68;5.43;;;;;;;10.61;69.65;100769.94;4997309;28;20050;-71
2022/05/30 05:03:00;;;;;;;14.48;4.97;;;;;;;10.86;68.90;100774.78;4997518;28;20490;-70
2022/05/30 05:05:28;;;;;;;10.48;4.47;;;;;;;10.80;68.99;100773.31;5013944;28;20058;-70
2022/05/30 05:08:15;;;;;;;14.88;4.65;;;;;;;10.71;68.88;100775.19;4996869;28;20363;-70
2022/05/30 05:11:21;;;;;;;10.63;4.65;;;;;;;10.69;68.99;100777.44;4997248;28;20054;-70
2022/05/30 05:14:09;;;;;;;19.33;5.25;;;;;;;10.69;68.94;100779.38;4998665;28;20046;-69
2022/05/30 05:16:55;;;;;;;14.25;5.20;;;;;;;10.45;69.60;100776.91;4997070;28;20069;-70
2022/05/30 05:19:22;;;;;;;15.07;5.78;;;;;;;10.53;69.64;100778.91;4980351;28;20062;-71
2022/05/30 05:21:50;;;;;;;12.40;5.72;;;;;;;10.71;69.10;100780.69;4959198;29;20059;-70
2022/05/30 05:24:20;;;;;;;;;;;;;;;10.90;68.17;100781.31;4994295;28;20054;-70
2022/05/30 05:27:17;;;;;;;14.48;5.80;;;;;;;10.87;68.22;100779.19;4976583;28;19921;-70
2022/05/30 05:29:47;;;;;;;13.60;5.63;;;;;;;11.01;67.69;100779.94;4996002;28;20069;-71
2022/05/30 05:32:15;;;;;;;21.00;6.03;;;;;;;10.67;68.49;100774.16;4978623;28;20069;-69
2022/05/30 05:34:43;;;;;;;18.25;5.97;;;;;;;10.87;68.31;100770.94;5012814;28;20054;-72
2022/05/30 05:37:11;;;;;;;13.75;5.53;;;;;;;10.91;67.85;100779.38;4996387;28;20054;-71
2022/05/30 05:40:02;;;;;;;13.77;5.28;;;;;;;10.95;67.64;100783.94;4987493;28;20490;-72
2022/05/30 05:42:30;;;;;;;15.82;5.05;;;;;;;11.03;67.37;100782.38;5011356;28;20046;-69
2022/05/30 05:45:00;;;;;;;;;;;;;;;10.87;67.51;100781.13;4980757;28;20062;-71
2022/05/30 05:47:28;;;;;;;18.77;5.50;;;;;;;10.95;67.48;100794.97;5012900;28;19921;-70
2022/05/30 05:49:58;;;;;;;17.40;5.22;;;;;;;11.15;66.76;100793.63;4995378;28;20046;-70
2022/05/30 05:52:28;;;;;;;13.98;5.65;;;;;;;11.22;66.42;100786.56;4997729;28;20046;-70
2022/05/30 05:55:01;;;;;;;18.98;5.60;;;;;;;11.23;66.44;100793.69;4996754;28;20065;-70
2022/05/30 05:57:29;;;;;;;14.68;5.70;;;;;;;11.32;65.80;100796.50;5012611;28;20054;-71
2022/05/30 05:59:56;;;;;;;14.50;5.32;;;;;;;10.96;66.94;100793.84;4994523;28;20391;-70
2022/05/30 06:02:27;;;;;;;13.32;5.38;;;;;;;11.19;66.59;100797.41;4996251;28;20054;-70
2022/05/30 06:04:56;;;;;;;19.92;6.28;;;;;;;11.29;65.81;100803.47;4996471;28;20391;-70
2022/05/30 06:07:43;;;;;;;17.35;5.80;;;;;;;11.23;65.58;100799.19;4996273;28;20046;-71
2022/05/30 06:11:04;;;;;;;17.95;5.55;;;;;;;11.21;65.93;100798.69;4997661;28;20061;-70
2022/05/30 06:13:21;;;;;;;13.55;5.10;;;;;;;11.24;65.67;100803.56;4994393;28;20051;-71
2022/05/30 06:15:53;;;;;;;13.40;5.32;;;;;;;11.10;65.86;100799.28;4996155;28;20058;-70
2022/05/30 06:18:34;;;;;;;14.02;5.47;;;;;;;11.01;66.25;100793.72;5006230;28;20050;-70
2022/05/30 06:21:03;;;;;;;13.48;4.97;;;;;;;11.06;66.41;100803.78;4992319;28;20058;-69
2022/05/30 06:23:36;;;;;;;19.25;5.65;;;;;;;11.08;66.24;100796.84;4994238;28;20047;-70
2022/05/30 06:26:10;;;;;;;18.30;5.82;;;;;;;11.36;65.33;100797.50;4980288;28;20062;-69
2022/05/30 06:29:03;;;;;;;19.60;5.75;;;;;;;11.58;64.62;100800.19;4980410;28;20062;-71
2022/05/30 06:31:31;;;;;;;13.90;5.45;;;;;;;11.79;63.96;100792.19;4978754;28;20489;-70
2022/05/30 06:34:01;;;;;;;14.13;4.88;;;;;;;11.72;64.08;100800.94;4997063;28;20053;-70
2022/05/30 06:36:38;;;;;;;12.52;4.70;;;;;;;11.84;63.85;100803.06;4987336;28;20046;-70
2022/05/30 06:39:06;;;;;;;16.05;5.57;;;;;;;12.10;63.06;100806.75;4993915;28;20073;-70
2022/05/30 06:41:52;;;;;;;18.75;5.68;;;;;;;11.89;63.12;100803.75;4994760;28;20054;-70
2022/05/30 06:44:19;;;;;;;18.38;5.50;;;;;;;11.65;64.36;100808.84;4992319;28;20047;-71
2022/05/30 06:46:53;;;;;;;12.55;5.90;;;;;;;11.96;63.30;100806.84;4996865;28;20613;-70
2022/05/30 06:49:39;;;;;;;15.68;5.47;;;;;;;11.93;63.10;100809.44;4995852;28;20058;-71
2022/05/30 06:52:11;;;;;;;13.68;4.95;;;;;;;11.99;62.71;100799.88;5011459;28;20521;-71
2022/05/30 06:54:38;;;;;;;13.02;4.70;;;;;;;12.07;62.42;100802.66;4993317;28;20057;-71
2022/05/30 06:59:53;;;;;;;15.82;4.72;;;;;;;12.13;61.61;100789.53;4996718;28;20050;-69
2022/05/30 07:02:21;;;;;;;9.68;4.50;;;;;;;12.12;61.33;100785.94;4995272;28;20067;-70
2022/05/30 07:05:07;;;;;;;17.00;4.70;;;;;;;12.12;61.41;100787.88;4996203;28;20053;-70
2022/05/30 07:07:56;;;;;;;11.88;4.70;;;;;;;12.23;61.03;100791.97;4995175;28;20054;-70
2022/05/30 07:10:31;;;;;;;13.18;4.30;;;;;;;12.39;60.14;100796.72;4996387;28;20508;-71
2022/05/30 07:13:09;;;;;;;14.52;4.78;;;;;;;12.34;60.05;100799.63;4987739;28;20046;-70
2022/05/30 07:15:38;;;;;;;11.57;4.30;;;;;;;12.55;59.30;100796.25;4978870;28;20042;-69
2022/05/30 07:18:11;;;;;;;10.82;4.03;;;;;;;12.55;58.90;100796.25;5010940;28;20062;-70
2022/05/30 07:20:40;;;;;;;14.40;4.90;;;;;;;12.51;59.04;100806.31;4955969;29;20059;-70
2022/05/30 07:23:26;;;;;;;14.55;4.82;;;;;;;12.51;58.59;100801.59;4957126;29;20047;-72
2022/05/30 07:26:16;;;;;;;13.73;4.60;;;;;;;12.55;58.79;100794.28;4976469;28;20062;-70
2022/05/30 07:29:03;;;;;;;13.23;4.28;;;;;;;12.89;58.38;100797.03;4993783;28;20047;-71
2022/05/30 07:31:50;;;;;;;15.18;4.85;;;;;;;13.41;56.79;100792.22;4996073;28;20054;-71
2022/05/30 07:34:37;;;;;;;12.48;4.15;;;;;;;13.71;55.35;100796.69;4994811;28;20054;-70
2022/05/30 07:37:23;;;;;;;15.35;4.35;;;;;;;13.99;54.29;100788.72;5008004;28;20075;-70
2022/05/30 07:39:56;;;;;;;14.65;3.90;;;;;;;14.29;52.59;100780.13;4994716;28;20049;-70
2022/05/30 07:42:50;;;;;;;15.40;4.40;;;;;;;14.19;52.30;100791.53;4979091;28;20062;-70
2022/05/30 07:45:34;;;;;;;10.02;3.90;;;;;;;14.68;51.42;100791.88;4994149;28;20068;-71
2022/05/30 07:48:16;;;;;;;10.55;4.47;;;;;;;14.82;50.40;100790.44;4994188;28;20062;-72
2022/05/30 07:50:44;;;;;;;17.25;4.20;;;;;;;14.93;50.07;100785.28;4995503;28;20069;-70
2022/05/30 07:53:24;;;;;;;;;;;;;;;14.55;50.23;100789.03;4990406;28;20525;-71
2022/05/30 07:56:16;;;;;;;;;;;;;;;15.07;49.14;100783.84;4949112;29;19930;-71
2022/05/30 07:58:45;;;;;;;12.30;3.28;;;;;;;14.99;49.22;100781.16;4971595;28;20287;-70
2022/05/30 08:01:19;;;;;;;12.52;3.55;;;;;;;14.88;49.16;100793.81;4971801;28;20051;-70
2022/05/30 08:03:49;;;;;;;14.35;4.13;;;;;;;14.66;48.97;100800.53;4992054;28;20054;-70
2022/05/30 08:06:55;;;;;;;10.57;3.10;;;;;;;14.31;48.71;100797.19;4975376;28;20062;-70
2022/05/30 08:09:45;;;;;;;8.50;3.33;;;;;;;14.57;48.95;100791.47;4975835;28;20055;-64
2022/05/30 08:12:15;;;;;;;16.20;3.50;;;;;;;14.24;50.56;100788.56;4975419;28;20055;-71
2022/05/30 08:15:09;;;;;;;17.77;3.60;;;;;;;14.70;48.39;100795.13;4995130;28;20656;-71
2022/05/30 08:18:00;;;;;;;9.55;2.90;;;;;;;14.55;48.09;100793.78;4989947;28;20058;-70
2022/05/30 08:20:31;;;;;;;18.50;5.88;;;;;;;14.40;48.54;100783.31;4984976;28;20055;-69
2022/05/30 08:22:59;;;;;;;10.23;3.33;;;;;;;14.24;49.74;100790.53;4987544;28;20055;-64
2022/05/30 08:25:27;;;;;;;12.35;3.67;;;;;;;14.17;49.75;100780.00;4977918;28;20045;-63
2022/05/30 08:27:55;;;;;;;15.40;3.58;;;;;;;14.40;49.54;100766.66;4993670;28;20050;-64
2022/05/30 08:30:23;;;;;;;7.25;2.78;;;;;;;14.61;48.69;100782.13;5008235;28;20054;-70
2022/05/30 08:33:16;;;;;;;9.07;3.20;;;;;;;14.71;48.82;100778.16;4977182;28;20050;-71
2022/05/30 08:36:12;;;;;;;8.52;2.58;;;;;;;14.49;47.55;100784.84;4988588;28;20054;-72
2022/05/30 08:38:40;;;;;;;11.00;2.67;;;;;;;14.22;48.68;100779.81;5008768;28;20055;-63
2022/05/30 08:44:32;;;;;;;17.95;3.10;;;;;;;14.42;46.79;100778.19;4994732;28;20058;-63
2022/05/30 08:47:46;;;;;;;6.80;2.17;;;;;;;14.81;46.32;100777.72;4991986;28;20046;-64
2022/05/30 08:50:26;;;;;;;10.25;2.10;;;;;;;14.68;47.00;100778.03;4993692;28;20058;-64
2022/05/30 08:53:07;;;;;;;6.65;2.60;;;;;;;14.56;45.81;100776.78;4993528;28;20061;-64
2022/05/30 08:55:51;;;;;;;7.97;1.90;;;;;;;14.50;45.45;100771.81;4993237;28;20046;-64
2022/05/30 08:59:06;;;;;;;10.48;2.28;;;;;;;14.63;45.38;100767.94;5007287;28;20049;-64
2022/05/30 09:01:44;;;;;;;9.82;2.00;;;;;;;14.45;46.15;100775.56;4991309;28;20055;-64
2022/05/30 09:04:53;;;;;;;8.38;2.00;;;;;;;14.62;45.88;100764.38;5008852;28;20038;-66
2022/05/30 09:07:29;;;;;;;5.70;1.60;;;;;;;14.59;45.39;100759.47;4996739;28;20057;-64
2022/05/30 09:10:02;;;;;;;5.82;1.90;;;;;;;14.13;44.96;100767.97;4995916;28;20054;-63
2022/05/30 09:12:47;;;;;;;12.05;2.63;;;;;;;14.57;44.58;100780.38;4980450;28;20055;-65
2022/05/30 09:16:03;;;;;;;7.75;1.90;;;;;;;14.53;44.34;100773.88;4977214;28;20069;-64
2022/05/30 09:18:36;;;;;;;8.77;2.38;;;;;;;14.31;45.11;100772.25;4992030;28;20065;-65
2022/05/30 09:21:03;;;;;;;8.75;2.05;;;;;;;14.36;45.48;100769.31;4961387;28;20073;-64
2022/05/30 09:23:32;;;;;;;12.50;2.30;;;;;;;14.56;45.44;100760.16;4954700;28;20065;-64
2022/05/30 09:26:00;;;;;;;8.82;2.25;;;;;;;14.75;45.18;100761.66;4979309;28;20054;-63
2022/05/30 09:28:54;;;;;;;11.52;2.10;;;;;;;15.08;44.80;100766.03;5000332;28;20062;-64
2022/05/30 09:31:36;;;;;;;9.95;2.38;;;;;;;14.85;45.32;100758.44;5011281;28;20046;-64
2022/05/30 09:34:46;;;;;;;5.78;1.63;;;;;;;14.72;44.58;100745.66;4992071;28;20206;-64
2022/05/30 09:38:20;;;;;;;12.10;2.30;;;;;;;15.12;42.68;100746.72;4994790;28;20656;-64
2022/05/30 09:40:53;;;;;;;4.28;1.35;;;;;;;15.17;42.64;100746.50;4976661;28;20074;-65
2022/05/30 09:43:56;;;;;;;13.00;5.20;;;;;;;15.17;43.05;100746.50;4951526;28;20055;-64
2022/05/30 09:46:56;;;;;;;;;;;;;;;15.13;43.03;100742.81;4973973;28;20392;-63
2022/05/30 09:49:50;;;;;;;8.07;1.40;;;;;;;14.47;43.86;100739.22;4911816;29;19922;-64
2022/05/30 09:52:38;;;;;;;4.05;1.60;;;;;;;14.82;43.95;100751.59;4979080;28;20054;-71
2022/05/30 09:55:19;;;;;;;6.18;1.80;;;;;;;14.79;43.40;100748.69;4988692;28;20055;-71
2022/05/30 09:57:47;;;;;;;5.88;1.60;;;;;;;15.07;43.06;100744.19;4980093;28;20057;-71
2022/05/30 10:00:27;;;;;;;9.50;1.92;;;;;;;14.96;42.94;100738.25;4980100;28;20486;-71
2022/05/30 10:03:10;;;;;;;8.32;2.30;;;;;;;15.10;43.38;100741.53;4996262;28;20062;-70
2022/05/30 10:05:39;;;;;;;7.22;1.75;;;;;;;15.38;42.53;100733.38;4964087;28;20541;-71
2022/05/30 10:08:27;;;;;;;8.88;1.98;;;;;;;15.35;41.80;100734.06;4978281;28;20058;-70
2022/05/30 10:11:06;;;;;;;9.32;2.15;;;;;;;15.35;41.43;100734.91;4994094;28;20085;-70
2022/05/30 10:13:38;;;;;;;4.50;1.58;;;;;;;15.47;41.09;100732.16;4994231;28;20050;-66
2022/05/30 10:16:33;;;;;;;9.63;1.60;;;;;;;15.56;41.01;100723.72;4996803;28;20054;-64
2022/05/30 10:19:20;;;;;;;5.03;1.40;;;;;;;15.51;41.79;100735.88;4983111;28;20062;-64
2022/05/30 10:28:52;;;;;;;11.60;1.77;;;;;;;15.68;41.08;100716.22;4984095;28;20062;-66
2022/05/30 10:31:49;;;;;;;7.53;1.80;;;;;;;15.58;41.00;100722.22;4995373;28;20054;-65
2022/05/30 10:34:54;;;;;;;10.88;1.98;;;;;;;15.39;42.08;100727.50;4980145;28;20059;-65
2022/05/30 10:37:28;;;;;;;9.90;2.00;;;;;;;15.23;42.50;100731.28;4974540;28;20059;-64
2022/05/30 10:40:24;;;;;;;7.82;2.50;;;;;;;15.29;42.54;100729.91;5012010;28;20066;-64
2022/05/30 10:42:56;;;;;;;5.80;1.83;;;;;;;15.43;42.33;100735.97;5012087;28;20489;-66
2022/05/30 10:45:32;;;;;;;9.57;2.25;;;;;;;15.64;41.58;100737.47;4995886;28;20054;-66
2022/05/30 10:48:01;;;;;;;11.10;1.52;;;;;;;15.92;40.45;100731.25;4978024;28;20065;-64
2022/05/30 10:50:42;;;;;;;8.73;2.47;;;;;;;15.91;40.78;100730.44;4979162;28;20046;-65
2022/05/30 10:53:26;;;;;;;7.78;2.10;;;;;;;15.87;40.39;100728.69;4994917;28;20054;-65
2022/05/30 10:56:19;;;;;;;7.72;2.38;;;;;;;15.92;40.09;100736.81;4972016;28;20058;-64
2022/05/30 10:58:53;;;;;;;11.57;1.85;;;;;;;16.01;39.80;100737.47;4977291;28;20068;-65
2022/05/30 11:02:03;;;;;;;10.35;2.90;;;;;;;16.13;39.62;100735.47;4977923;28;20051;-65
2022/05/30 11:04:34;;;;;;;8.32;1.88;;;;;;;16.19;39.17;100739.66;4960867;28;20066;-63
2022/05/30 11:07:29;;;;;;;28.17;9.52;;;;;;;16.25;38.85;100724.34;4995594;28;20497;-71
2022/05/30 11:10:17;;;;;;;8.77;1.75;;;;;;;16.71;38.72;100717.38;4993408;28;20055;-72
2022/05/30 11:12:49;;;;;;;7.13;1.90;;;;;;;16.84;38.21;100725.31;4995132;28;20050;-71
2022/05/30 11:15:30;;;;;;;6.22;1.55;;;;;;;16.59;37.95;100717.44;4994654;28;20042;-71
2022/05/30 11:18:45;;;;;;;7.57;2.00;;;;;;;16.28;38.55;100729.22;4947277;29;20078;-71
2022/05/30 11:22:27;;;;;;;14.07;1.83;;;;;;;16.36;38.17;100725.47;4958960;28;20062;-71
2022/05/30 11:25:02;;;;;;;24.10;15.10;;;;;;;16.21;38.34;100729.00;4969690;28;20058;-70
2022/05/30 11:27:39;;;;;;;12.18;5.38;;;;;;;15.87;38.91;100718.38;4959087;28;20502;-71
2022/05/30 11:30:29;;;;;;;12.15;2.97;;;;;;;16.31;38.69;100711.81;4960100;28;20058;-71
2022/05/30 11:33:10;;;;;;;7.90;2.13;;;;;;;16.60;38.18;100705.97;4976562;28;20050;-71
2022/05/30 11:35:46;;;;;;;7.63;2.03;;;;;;;16.64;37.56;100706.06;4975469;28;20402;-70
2022/05/30 11:38:39;;;;;;;7.45;1.60;;;;;;;16.84;37.71;100699.50;4991053;28;20059;-71
2022/05/30 11:41:21;;;;;;;5.93;1.70;;;;;;;17.04;37.13;100700.41;4974864;28;20058;-71
2022/05/30 11:44:03;;;;;;;10.18;4.93;;;;;;;17.17;37.35;100711.13;5002150;28;20152;-70
2022/05/30 11:46:59;;;;;;;7.38;2.45;;;;;;;17.07;37.07;100710.84;4994600;28;20057;-71
2022/05/30 11:49:39;;;;;;;6.82;1.92;;;;;;;16.66;37.44;100703.75;4995634;28;20065;-71
2022/05/30 11:52:23;;;;;;;4.60;1.90;;;;;;;16.62;37.41;100700.03;4995074;28;20493;-71
2022/05/30 11:55:20;;;;;;;3.33;1.50;;;;;;;17.02;37.21;100699.94;4994556;28;20069;-71
2022/05/30 11:57:50;;;;;;;7.07;1.92;;;;;;;17.17;36.53;100693.59;4994681;28;20061;-72
2022/05/30 12:00:41;;;;;;;5.97;1.85;;;;;;;17.05;37.00;100694.47;5010768;28;20081;-71
2022/05/30 12:03:15;;;;;;;8.13;1.63;;;;;;;16.93;37.13;100696.53;4994151;28;20054;-71
2022/05/30 12:06:10;;;;;;;7.95;3.00;;;;;;;17.30;36.18;100701.50;4995192;28;20042;-71
2022/05/30 12:09:12;;;;;;;15.18;2.97;;;;;;;16.76;37.30;100701.25;4992807;28;20046;-70
2022/05/30 12:11:51;;;;;;;10.20;2.20;;;;;;;16.47;37.74;100696.06;4957343;28;20065;-63
2022/05/30 12:14:47;;;;;;;7.70;2.00;;;;;;;16.22;38.32;100694.47;4994200;28;20050;-65
2022/05/30 12:17:37;;;;;;;6.97;2.28;;;;;;;16.63;37.72;100696.91;4958291;28;20054;-63
2022/05/30 12:25:53;;;;;;;6.15;2.45;;;;;;;16.84;37.30;100686.38;4958118;28;20061;-66
2022/05/30 12:28:27;;;;;;;5.78;1.70;;;;;;;16.82;36.55;100688.69;4988435;28;20409;-64
2022/05/30 12:30:58;;;;;;;4.45;1.67;;;;;;;16.52;37.17;100684.69;5010587;28;20054;-64
2022/05/30 12:33:49;;;;;;;9.73;1.77;;;;;;;16.32;37.75;100682.84;4993616;28;20062;-64
2022/05/30 12:36:16;;;;;;;9.65;1.85;;;;;;;16.51;37.18;100690.59;4977880;28;20061;-64